Airfield :
LOGIN :

Register | Disclaimer

   EN    FR    IT 

 










Legend :    VFR   Marginal VFR   IFR   Intensive IFR   Very Intensive IFR
Visi :
Ceiling :
>= 8 km
>= 3000ft
5 to 8 km
1000 to 3000 ft
1500m to 5 km
500 to 1000 ft
800 to 1500m
200 to 500 ft
< 800m
< 200 ft
Symbols :   Thunderstorms  Fog  Heavy snow  Heavy precipitations  Wind > 20 kt
SIGMETs :     Misc.  Thunderstorms  Icing  Turbulence  Mountain Waves  Volcanic Ashes






- Airport Elevation : 3 ft
- IATA code : LWR


EHLW - Leuuwarden Air Base

CURRENT METAR :
  • 250225Z AUTO VRB03KT 0600 FZFG FEW000 BKN130 OVC180 M03/M03 Q1000 RED

EXPIRED METARs :
  • 250212Z AUTO 09001KT 1800 BR OVC140 M04/M04 Q0999 YLO
  • 250155Z AUTO 20002KT 2600 BR OVC170 M03/M03 Q0999 YLO
  • 250125Z AUTO 21003KT 2500 BR OVC160 M03/M03 Q0999 YLO
  • 250100Z AUTO 17001KT 3200 BR OVC170 M03/M03 Q0999 YLO
  • 250055Z AUTO 17001KT 5000 BR OVC170 M03/M03 Q0999 WHT
  • 250042Z AUTO 19001KT 1800 BR OVC180 M04/M04 Q0999 YLO
  • 250035Z AUTO 19001KT 1000 BR OVC180 M03/M04 Q0999 AMB
  • 250032Z AUTO 19001KT 5000 BR BKN190 M03/M04 Q0999 WHT

TAF TAF EHLW
Valid from the 25 at 02:00 until the 25 at 14:00 UTC


250008Z 2502/2514 24003KT 4500 BR MIFG
PROB40 2502/2508 0500 FGFG
BECMG 2507/2509 6000 NSW



MET'MAP, your aeronautical weather chart ! - Copyright ORBIFLY December 2007 - Disclaimer

ORBIFLY MET'MAP TEAM :

Programming & Development : Alexandra Zaïnal
Concept & original design : Baudouin d'Aumeries
Assistance for programming : Marc-Olivier Méhu
Technical & hardware support : Manuel Goepfert

Contact : metmap@orbifly.com




SOURCES & CREDITS :

   NOAA